createdAt,value
2019-02-06T00:05:18.109Z,38.88
2019-02-06T00:11:21.902Z,46.48
2019-02-06T00:23:21.738Z,40.00
2019-02-06T00:28:33.377Z,38.35
2019-02-06T00:33:44.575Z,38.17
2019-02-06T00:38:55.124Z,41.70
2019-02-06T00:50:56.445Z,39.15
2019-02-06T00:56:39.330Z,44.70
2019-02-06T01:08:49.565Z,38.63
2019-02-06T01:14:48.431Z,36.40
2019-02-06T01:33:28.932Z,40.17
2019-02-06T01:45:38.122Z,37.80
2019-02-06T01:57:16.719Z,37.08
2019-02-06T02:03:08.537Z,47.73
2019-02-06T02:08:21.451Z,41.75
2019-02-06T02:19:50.934Z,37.35
2019-02-06T02:31:08.584Z,38.42
2019-02-06T02:42:43.857Z,36.68
2019-02-06T02:48:08.968Z,37.88
2019-02-06T02:54:00.116Z,35.92
2019-02-06T03:00:00.939Z,41.05
2019-02-06T03:05:59.443Z,33.45
2019-02-06T03:11:58.768Z,36.68
2019-02-06T03:17:28.997Z,39.08
2019-02-06T03:23:35.948Z,36.45
2019-02-06T03:31:19.639Z,40.98
2019-02-06T03:50:08.418Z,41.33
2019-02-06T03:54:15.623Z,39.50
2019-02-06T03:59:44.592Z,39.42
2019-02-06T04:05:16.106Z,42.65
2019-02-06T04:10:54.153Z,43.02
2019-02-06T04:16:46.810Z,38.55
2019-02-06T04:22:44.029Z,40.23
2019-02-06T04:41:25.835Z,38.75
2019-02-06T04:52:32.373Z,41.77
2019-02-06T05:15:40.686Z,40.75
2019-02-06T05:21:49.037Z,40.52
2019-02-06T05:26:51.474Z,37.75
2019-02-06T05:31:53.745Z,41.08
2019-02-06T05:36:55.881Z,39.18
2019-02-06T05:41:57.953Z,42.85
2019-02-06T05:47:02.923Z,43.30
2019-02-06T05:52:10.915Z,42.08
2019-02-06T05:57:19.658Z,39.18
2019-02-06T06:02:23.230Z,41.95
2019-02-06T06:07:44.137Z,47.58
2019-02-06T06:12:44.890Z,41.63
2019-02-06T06:17:49.968Z,37.63
2019-02-06T06:22:58.243Z,37.78
2019-02-06T06:28:05.617Z,36.95
2019-02-06T06:33:20.534Z,44.58
2019-02-06T06:38:28.587Z,38.53
2019-02-06T06:43:36.930Z,45.80
2019-02-06T06:48:45.192Z,42.40
2019-02-06T06:53:50.355Z,40.85
2019-02-06T06:58:58.434Z,42.25
2019-02-06T07:04:04.613Z,46.05
2019-02-06T07:09:13.171Z,43.02
2019-02-06T07:14:19.207Z,33.40
2019-02-06T07:19:24.311Z,45.58
2019-02-06T07:24:33.912Z,39.88
2019-02-06T07:29:41.910Z,46.42
2019-02-06T07:34:47.223Z,42.70
2019-02-06T07:39:54.028Z,46.95
2019-02-06T07:44:58.208Z,49.80
2019-02-06T07:50:03.300Z,48.45
2019-02-06T07:55:07.362Z,48.10
2019-02-06T08:00:13.972Z,44.58
2019-02-06T08:05:18.321Z,46.80
2019-02-06T08:10:25.663Z,47.23
2019-02-06T08:15:35.416Z,50.00
2019-02-06T08:20:45.507Z,48.83
2019-02-06T08:25:52.469Z,46.08
2019-02-06T08:30:54.956Z,52.03
2019-02-06T08:35:57.254Z,45.20
2019-02-06T08:40:59.555Z,50.80
2019-02-06T08:46:06.807Z,53.35
2019-02-06T08:51:10.849Z,50.17
2019-02-06T08:56:16.182Z,46.23
2019-02-06T09:01:21.423Z,55.52
2019-02-06T09:06:24.090Z,49.75
2019-02-06T09:11:28.733Z,53.70
2019-02-06T09:16:31.478Z,48.13
2019-02-06T09:21:35.995Z,52.65
2019-02-06T09:26:42.600Z,55.55
2019-02-06T09:31:47.015Z,54.73
2019-02-06T09:36:53.381Z,53.87
2019-02-06T09:41:57.206Z,49.48
2019-02-06T09:46:59.405Z,51.30
2019-02-06T09:52:05.004Z,54.53
2019-02-06T09:57:11.294Z,54.25
2019-02-06T10:02:20.640Z,55.58
2019-02-06T10:07:24.499Z,52.62
2019-02-06T10:12:27.290Z,52.98
2019-02-06T10:17:29.508Z,53.80
2019-02-06T10:22:34.102Z,48.58
2019-02-06T10:27:41.680Z,55.88
2019-02-06T10:32:49.776Z,58.63
2019-02-06T10:37:54.306Z,57.93
2019-02-06T10:42:59.960Z,62.03
2019-02-06T10:48:05.686Z,55.28
2019-02-06T10:53:15.694Z,55.63
2019-02-06T10:58:21.566Z,55.90
2019-02-06T11:03:26.709Z,53.08
2019-02-06T11:08:32.852Z,53.42
2019-02-06T11:13:37.757Z,53.08
2019-02-06T11:18:44.525Z,52.35
2019-02-06T11:23:49.028Z,62.75
2019-02-06T11:28:58.243Z,55.67
2019-02-06T11:34:02.938Z,52.65
2019-02-06T11:39:11.950Z,57.75
2019-02-06T11:44:22.629Z,61.05
2019-02-06T11:49:34.412Z,59.58
2019-02-06T11:54:36.752Z,51.20
2019-02-06T11:59:40.275Z,57.78
2019-02-06T12:04:46.549Z,53.05
2019-02-06T12:09:48.741Z,57.05
2019-02-06T12:14:57.156Z,58.10
2019-02-06T12:20:01.479Z,55.80
2019-02-06T12:25:06.348Z,54.67
2019-02-06T12:30:14.071Z,60.33
2019-02-06T12:35:19.934Z,61.33
2019-02-06T12:40:27.217Z,56.00
2019-02-06T12:45:32.138Z,55.43
2019-02-06T12:50:36.446Z,52.62
2019-02-06T12:55:42.952Z,53.10
2019-02-06T13:00:45.282Z,59.98
2019-02-06T13:05:47.449Z,54.40
2019-02-06T13:10:49.576Z,54.83
2019-02-06T13:15:52.007Z,55.33
2019-02-06T13:20:54.115Z,53.45
2019-02-06T13:25:56.237Z,53.02
2019-02-06T13:30:58.488Z,54.08
2019-02-06T13:36:00.640Z,53.30
2019-02-06T13:41:02.879Z,52.35
2019-02-06T13:46:05.054Z,53.87
2019-02-06T13:51:17.589Z,54.42
2019-02-06T13:56:16.613Z,48.30
2019-02-06T14:01:26.207Z,52.43
2019-02-06T14:06:23.083Z,51.63
2019-02-06T14:11:29.185Z,46.55
2019-02-06T14:16:31.564Z,45.28
2019-02-06T14:21:33.812Z,47.45
2019-02-06T14:26:48.724Z,44.08
2019-02-06T14:32:37.213Z,43.15
2019-02-06T14:38:24.380Z,41.33
2019-02-06T14:43:43.378Z,42.03
2019-02-06T14:49:09.962Z,43.55
2019-02-06T14:54:50.994Z,46.40
2019-02-06T15:00:20.999Z,42.65
2019-02-06T15:05:37.126Z,44.88
2019-02-06T15:11:01.760Z,40.15
2019-02-06T15:16:29.936Z,39.65
2019-02-06T15:22:12.446Z,42.53
2019-02-06T15:28:02.588Z,45.03
2019-02-06T15:33:33.335Z,43.78
2019-02-06T15:38:58.334Z,43.23
2019-02-06T15:44:28.702Z,45.25
2019-02-06T15:49:59.523Z,47.62
2019-02-06T15:55:37.968Z,41.45
2019-02-06T16:01:20.655Z,44.90
2019-02-06T16:06:52.842Z,46.83
2019-02-06T16:12:39.874Z,46.92
2019-02-06T16:18:16.703Z,43.38
2019-02-06T16:24:05.481Z,43.70
2019-02-06T16:29:30.580Z,44.90
2019-02-06T16:35:19.913Z,39.67
2019-02-06T16:40:51.804Z,42.40
2019-02-06T16:46:35.754Z,52.98
2019-02-06T16:52:01.872Z,45.98
2019-02-06T16:57:39.569Z,43.90
2019-02-06T17:03:21.746Z,42.35
2019-02-06T17:09:01.818Z,42.03
2019-02-06T17:15:15.913Z,44.83
2019-02-06T17:20:58.543Z,45.80
2019-02-06T17:26:36.753Z,45.28
2019-02-06T17:32:10.793Z,48.23
2019-02-06T17:37:41.993Z,49.30
2019-02-06T17:43:23.354Z,50.88
2019-02-06T17:48:41.746Z,52.95
2019-02-06T17:54:05.820Z,45.95
2019-02-06T17:59:08.414Z,51.53
2019-02-06T18:04:23.229Z,48.08
2019-02-06T18:09:25.384Z,50.30
2019-02-06T18:14:27.882Z,50.05
2019-02-06T18:19:35.777Z,46.02
2019-02-06T18:24:37.800Z,48.38
2019-02-06T18:29:39.935Z,45.10
2019-02-06T18:34:46.386Z,49.93
2019-02-06T18:39:48.558Z,47.53
2019-02-06T18:44:50.767Z,45.75
2019-02-06T18:49:53.712Z,49.55
2019-02-06T18:54:57.577Z,45.58
2019-02-06T18:59:59.769Z,48.45
2019-02-06T19:05:04.056Z,44.48
2019-02-06T19:10:07.689Z,55.25
2019-02-06T19:15:10.516Z,46.05
2019-02-06T19:20:13.268Z,47.83
2019-02-06T19:25:15.358Z,55.20
2019-02-06T19:30:22.961Z,45.83
2019-02-06T19:35:27.207Z,48.45
2019-02-06T19:40:29.245Z,50.45
2019-02-06T19:45:38.026Z,48.15
2019-02-06T19:50:40.575Z,47.88
2019-02-06T19:55:42.762Z,50.85
2019-02-06T20:00:45.059Z,51.90
2019-02-06T20:05:49.372Z,54.38
2019-02-06T20:10:51.643Z,51.58
2019-02-06T20:16:19.799Z,54.15
2019-02-06T20:21:25.104Z,49.10
2019-02-06T20:26:41.181Z,51.63
2019-02-06T20:32:26.604Z,51.48
2019-02-06T20:49:54.460Z,52.25
2019-02-06T20:56:01.188Z,55.90
2019-02-06T21:01:16.688Z,50.70
2019-02-06T21:06:28.486Z,53.87
2019-02-06T21:22:48.947Z,58.30
2019-02-06T21:27:52.202Z,58.90
2019-02-06T21:32:54.688Z,54.45
2019-02-06T21:37:57.312Z,53.02
2019-02-06T21:42:59.622Z,50.12
2019-02-06T21:48:01.720Z,54.53
2019-02-06T21:53:04.049Z,58.35
2019-02-06T21:58:06.016Z,55.78
2019-02-06T22:03:10.771Z,74.92
2019-02-06T22:08:13.211Z,61.50
2019-02-06T22:13:15.315Z,53.70
2019-02-06T22:18:17.471Z,51.15
2019-02-06T22:23:19.483Z,46.42
2019-02-06T22:28:21.692Z,58.48
2019-02-06T22:33:23.997Z,53.60
2019-02-06T22:38:26.054Z,56.58
2019-02-06T22:43:28.104Z,58.65
2019-02-06T22:48:30.129Z,58.52
2019-02-06T22:53:32.202Z,51.65
2019-02-06T22:58:34.548Z,59.27
2019-02-06T23:03:41.778Z,58.52
2019-02-06T23:08:43.872Z,61.20
2019-02-06T23:13:45.982Z,61.58
2019-02-06T23:18:48.216Z,55.78
2019-02-06T23:23:50.565Z,58.73
2019-02-06T23:28:52.711Z,62.98
2019-02-06T23:33:54.797Z,62.85
2019-02-06T23:38:56.891Z,62.23
2019-02-06T23:43:59.261Z,62.17
2019-02-06T23:49:01.561Z,58.10
2019-02-06T23:54:04.080Z,54.33
2019-02-06T23:59:06.161Z,56.63
